createdAt,value
2023-05-09T08:23:49.267Z,31.26
2023-05-09T08:28:46.862Z,31.67
2023-05-09T08:33:41.703Z,32.04
2023-05-09T08:38:36.386Z,31.49
2023-05-09T08:43:30.097Z,30.98
2023-05-09T08:48:24.082Z,29.79
2023-05-09T08:53:16.880Z,30.35
2023-05-09T08:58:12.287Z,29.39
2023-05-09T09:03:08.559Z,29.47
2023-05-09T09:08:01.409Z,28.22
2023-05-09T09:12:54.737Z,29.27
2023-05-09T09:17:52.016Z,27.68
2023-05-09T09:22:48.041Z,28.00
2023-05-09T09:27:41.913Z,28.34
2023-05-09T09:32:34.651Z,27.62
2023-05-09T09:37:26.615Z,27.25
2023-05-09T09:42:19.362Z,27.43
2023-05-09T09:47:11.799Z,28.79
2023-05-09T09:52:04.453Z,29.94
2023-05-09T09:56:56.650Z,29.53
2023-05-09T10:01:58.624Z,29.83
2023-05-09T10:06:54.247Z,29.37
2023-05-09T10:11:49.403Z,28.30
2023-05-09T10:16:44.306Z,27.76
2023-05-09T10:21:38.133Z,27.16
2023-05-09T10:26:34.001Z,27.79
2023-05-09T10:31:35.304Z,27.19
2023-05-09T10:36:29.291Z,27.34
2023-05-09T10:41:22.881Z,27.88
2023-05-09T10:46:16.752Z,26.57
2023-05-09T10:51:10.608Z,26.70
2023-05-09T10:56:03.967Z,27.66
2023-05-09T11:00:58.500Z,27.46
2023-05-09T11:05:54.247Z,27.48
2023-05-09T11:10:47.312Z,27.34
2023-05-09T11:16:02.322Z,27.41
2023-05-09T11:20:54.702Z,27.57
2023-05-09T11:25:49.329Z,27.83
2023-05-09T11:30:44.892Z,26.73
2023-05-09T11:35:39.261Z,27.02
2023-05-09T11:40:34.334Z,26.89
2023-05-09T11:45:31.195Z,27.44
2023-05-09T11:50:24.423Z,26.78
2023-05-09T11:55:19.526Z,27.53
2023-05-09T12:00:12.250Z,27.64
2023-05-09T12:05:11.501Z,27.57
2023-05-09T12:10:06.934Z,27.55
2023-05-09T12:15:05.138Z,27.47
2023-05-09T12:19:59.999Z,27.21
2023-05-09T12:24:52.941Z,27.98
2023-05-09T12:29:47.627Z,27.04
2023-05-09T12:34:40.119Z,26.95
2023-05-09T12:39:31.846Z,27.59
2023-05-09T12:44:28.225Z,27.66
2023-05-09T12:49:21.952Z,27.50
2023-05-09T12:54:19.935Z,26.60
2023-05-09T12:59:14.852Z,27.36
2023-05-09T13:04:10.542Z,27.28
2023-05-09T13:09:06.641Z,26.97
2023-05-09T13:13:59.287Z,25.70
2023-05-09T13:18:52.950Z,25.83
2023-05-09T13:23:46.919Z,25.84
2023-05-09T13:28:38.619Z,25.87
2023-05-09T13:33:30.737Z,25.80
2023-05-09T13:38:23.305Z,25.69
2023-05-09T13:43:15.766Z,25.61
2023-05-09T13:48:07.713Z,25.44
2023-05-09T13:53:02.289Z,25.48
2023-05-09T13:57:54.254Z,24.95
2023-05-09T14:02:47.374Z,24.82
2023-05-09T14:07:39.326Z,25.38
2023-05-09T14:12:31.253Z,25.07
2023-05-09T14:17:23.214Z,24.51
2023-05-09T14:22:18.916Z,22.94
2023-05-09T14:27:10.756Z,22.05
2023-05-09T14:32:03.213Z,21.33
2023-05-09T14:36:54.963Z,21.66
2023-05-09T14:41:50.087Z,21.59
2023-05-09T14:46:41.930Z,21.25
2023-05-09T14:51:34.327Z,21.52
2023-05-09T14:56:26.866Z,20.65
2023-05-09T15:01:19.755Z,20.48
2023-05-09T15:06:13.515Z,20.42
2023-05-09T15:11:08.580Z,20.22
2023-05-09T15:16:02.585Z,19.73
2023-05-09T15:20:55.646Z,20.51
2023-05-09T15:27:03.535Z,20.71
2023-05-09T15:32:40.899Z,20.05
2023-05-09T15:50:05.186Z,19.80
2023-05-09T15:54:57.374Z,19.74
2023-05-09T15:59:50.830Z,19.95
2023-05-09T16:04:44.902Z,20.20
2023-05-09T16:09:37.601Z,20.09
2023-05-09T16:14:29.635Z,19.51
2023-05-09T16:19:25.339Z,19.68
2023-05-09T16:24:19.442Z,19.46
2023-05-09T16:29:12.910Z,18.27
2023-05-09T16:34:04.798Z,18.84
2023-05-09T16:38:56.660Z,19.16
2023-05-09T16:43:48.902Z,19.16
2023-05-09T16:48:43.280Z,18.79
2023-05-09T16:53:37.017Z,18.31
2023-05-09T16:58:28.868Z,18.80
2023-05-09T17:03:20.764Z,18.36
2023-05-09T17:08:13.287Z,18.13
2023-05-09T17:13:08.929Z,17.90
2023-05-09T17:18:02.182Z,18.20
2023-05-09T17:22:54.351Z,18.10
2023-05-09T17:27:46.119Z,18.14
2023-05-09T17:32:37.983Z,18.03
2023-05-09T17:37:29.814Z,17.44
2023-05-09T17:42:22.439Z,17.99
2023-05-09T17:47:15.589Z,17.96
2023-05-09T17:52:08.356Z,17.62
2023-05-09T17:57:06.154Z,17.56
2023-05-09T18:01:59.168Z,17.38
2023-05-09T18:06:55.318Z,17.48
2023-05-09T18:11:47.754Z,17.60
2023-05-09T18:16:41.316Z,16.58
2023-05-09T18:21:33.320Z,17.24
2023-05-09T18:26:25.606Z,16.93
2023-05-09T18:31:18.250Z,16.05
2023-05-09T18:36:12.115Z,16.32
2023-05-09T18:41:06.426Z,16.89
2023-05-09T18:45:59.770Z,15.89
2023-05-09T18:50:53.447Z,16.45
2023-05-09T18:55:46.413Z,16.18
2023-05-09T19:00:39.795Z,16.21
2023-05-09T19:05:32.736Z,16.20
2023-05-09T19:10:25.035Z,15.95
2023-05-09T19:15:16.986Z,15.89
2023-05-09T19:20:09.999Z,15.56
2023-05-09T19:25:01.998Z,15.10
2023-05-09T19:29:54.673Z,15.40
2023-05-09T19:34:48.145Z,15.17
2023-05-09T19:39:40.372Z,15.40
2023-05-09T19:44:32.977Z,14.71
2023-05-09T19:49:24.989Z,14.94
2023-05-09T19:54:17.393Z,15.12
2023-05-09T19:59:10.483Z,15.02
2023-05-09T20:04:04.115Z,15.02
2023-05-09T20:08:57.608Z,14.31
2023-05-09T20:13:51.786Z,14.69
2023-05-09T20:18:44.277Z,14.12
2023-05-09T20:23:36.929Z,14.76
2023-05-09T20:28:28.918Z,14.75
2023-05-09T20:33:24.394Z,14.31
2023-05-09T20:38:16.292Z,14.05
2023-05-09T20:43:08.062Z,14.11
2023-05-09T20:48:01.904Z,14.56
2023-05-09T20:52:55.308Z,14.34
2023-05-09T20:57:47.811Z,14.52
2023-05-09T21:02:40.730Z,14.38
2023-05-09T21:07:34.488Z,14.35
2023-05-09T21:12:26.319Z,14.42
2023-05-09T21:17:19.375Z,14.20
2023-05-09T21:22:13.598Z,14.17
2023-05-09T21:27:06.282Z,13.74
2023-05-09T21:32:00.392Z,14.31
2023-05-09T21:36:54.887Z,14.51
2023-05-09T21:41:46.926Z,14.08
2023-05-09T21:46:39.180Z,14.08
2023-05-09T21:51:31.921Z,13.67
2023-05-09T21:56:23.911Z,13.83
2023-05-09T22:01:17.391Z,14.25
2023-05-09T22:06:09.264Z,13.71
2023-05-09T22:11:01.121Z,13.85
2023-05-09T22:15:53.516Z,13.10
2023-05-09T22:20:45.456Z,14.35
2023-05-09T22:25:38.412Z,14.14
2023-05-09T22:30:31.547Z,14.35
2023-05-09T22:35:23.443Z,14.44
2023-05-09T22:40:16.661Z,14.27
2023-05-09T22:45:09.515Z,13.93
2023-05-09T22:50:03.527Z,14.34
2023-05-09T22:54:56.499Z,13.69
2023-05-09T22:59:49.456Z,14.32
2023-05-09T23:04:41.626Z,13.58
2023-05-09T23:09:35.036Z,14.20
2023-05-09T23:14:27.268Z,13.94
2023-05-09T23:19:20.089Z,14.22
2023-05-09T23:24:12.951Z,14.31
2023-05-09T23:29:06.228Z,14.33
2023-05-09T23:33:58.109Z,14.04
2023-05-09T23:38:50.066Z,14.27
2023-05-09T23:43:42.900Z,14.18
2023-05-09T23:48:34.997Z,14.27
2023-05-09T23:53:27.094Z,14.31
2023-05-09T23:58:19.084Z,14.28
